Time;durP1;ratioP1;P1;durP2;ratioP2;P2;SDS_P1;SDS_P2;PMS_P1;PMS_P2;Temp;Humidity;BMP_temperature;BMP_pressure;BME280_temperature;BME280_humidity;BME280_pressure;Samples;Min_cycle;Max_cycle;Signal;HPM_P1;HPM_P2
2023/03/18 00:01:28;;;;;;;2.90;1.77;;;12.90;99.90;;;;;;5033582;28;20182;-45
2023/03/18 00:03:54;;;;;;;2.90;2.10;;;12.90;99.90;;;;;;5032804;28;20424;-46
2023/03/18 00:06:20;;;;;;;3.03;1.90;;;12.80;99.90;;;;;;5032997;28;20436;-46
2023/03/18 00:08:47;;;;;;;2.60;2.10;;;12.80;99.90;;;;;;5034150;28;20179;-47
2023/03/18 00:11:15;;;;;;;3.00;2.17;;;12.80;99.90;;;;;;5033814;28;20516;-44
2023/03/18 00:13:41;;;;;;;3.10;1.90;;;12.80;99.90;;;;;;5033554;28;20473;-46
2023/03/18 00:16:10;;;;;;;2.70;1.93;;;12.70;99.90;;;;;;5032927;28;20421;-50
2023/03/18 00:18:36;;;;;;;4.13;2.73;;;12.70;99.90;;;;;;5034380;28;20433;-49
2023/03/18 00:21:03;;;;;;;2.70;1.87;;;12.70;99.90;;;;;;5033718;28;20471;-47
2023/03/18 00:23:30;;;;;;;4.00;1.80;;;12.70;99.90;;;;;;5033186;28;20436;-45
2023/03/18 00:25:58;;;;;;;3.13;2.10;;;12.70;99.90;;;;;;5033500;28;20524;-44
2023/03/18 00:28:24;;;;;;;3.60;1.70;;;12.60;99.90;;;;;;5033744;28;20526;-48
2023/03/18 00:30:50;;;;;;;3.00;2.10;;;12.60;99.90;;;;;;5033282;28;20858;-45
2023/03/18 00:33:17;;;;;;;1.97;1.60;;;12.60;99.90;;;;;;5033471;28;20476;-46
2023/03/18 00:35:47;;;;;;;2.83;1.83;;;12.50;99.90;;;;;;5035496;28;20692;-47
2023/03/18 00:38:19;;;;;;;3.20;2.00;;;12.60;99.90;;;;;;5037237;28;20421;-44
2023/03/18 00:40:52;;;;;;;2.73;1.70;;;12.60;99.90;;;;;;5037904;28;20567;-45
2023/03/18 00:43:28;;;;;;;4.80;2.13;;;12.50;99.90;;;;;;5039066;28;20517;-47
2023/03/18 00:45:55;;;;;;;2.43;1.60;;;12.50;99.90;;;;;;5037058;28;20420;-46
2023/03/18 00:48:21;;;;;;;3.30;2.03;;;12.50;99.90;;;;;;5036471;28;20809;-46
2023/03/18 00:50:48;;;;;;;3.63;2.60;;;12.60;99.90;;;;;;5035868;28;20428;-45
2023/03/18 00:53:14;;;;;;;5.00;1.97;;;12.50;99.90;;;;;;5036461;28;20472;-44
2023/03/18 00:55:40;;;;;;;2.70;2.30;;;12.50;99.90;;;;;;5036833;28;20431;-45
2023/03/18 00:58:07;;;;;;;2.33;1.83;;;12.50;99.90;;;;;;5036312;28;20190;-47
2023/03/18 01:00:34;;;;;;;4.20;2.27;;;12.50;99.90;;;;;;5036065;28;20920;-47
2023/03/18 01:03:00;;;;;;;4.23;2.60;;;12.50;99.90;;;;;;5035293;28;20445;-46
2023/03/18 01:05:26;;;;;;;2.80;2.00;;;12.50;99.90;;;;;;5034469;28;20413;-45
2023/03/18 01:07:52;;;;;;;2.67;2.33;;;12.50;99.90;;;;;;5036525;28;20560;-45
2023/03/18 01:10:18;;;;;;;4.03;2.40;;;12.50;99.90;;;;;;5033818;28;20525;-47
2023/03/18 01:12:47;;;;;;;3.67;2.10;;;12.50;99.90;;;;;;5033910;28;20230;-47
2023/03/18 01:15:15;;;;;;;2.70;2.10;;;12.50;99.90;;;;;;5034469;28;20488;-44
2023/03/18 01:17:41;;;;;;;2.37;2.07;;;12.50;99.90;;;;;;5035937;28;20425;-46
2023/03/18 01:20:11;;;;;;;2.57;1.90;;;12.50;99.90;;;;;;5036470;28;20499;-47
2023/03/18 01:22:40;;;;;;;2.73;1.67;;;12.50;99.90;;;;;;5034508;28;20300;-45
2023/03/18 01:25:07;;;;;;;5.23;2.77;;;12.60;99.90;;;;;;5036029;28;20781;-47
2023/03/18 01:27:33;;;;;;;3.50;2.10;;;12.50;99.90;;;;;;5036522;28;20428;-46
2023/03/18 01:29:59;;;;;;;2.47;1.83;;;12.60;99.90;;;;;;5036672;28;20414;-47
2023/03/18 01:32:24;;;;;;;1.87;1.43;;;12.60;99.90;;;;;;5036172;28;20818;-47
2023/03/18 01:34:50;;;;;;;2.20;1.87;;;12.60;99.90;;;;;;5035296;28;20202;-47
2023/03/18 01:37:16;;;;;;;3.10;1.53;;;12.60;99.90;;;;;;5037537;28;20470;-47
2023/03/18 01:39:41;;;;;;;2.40;1.43;;;12.60;99.90;;;;;;5037258;28;20297;-46
2023/03/18 01:42:07;;;;;;;2.70;1.70;;;12.60;99.90;;;;;;5036694;28;20210;-46
2023/03/18 01:44:33;;;;;;;5.93;1.97;;;12.60;99.90;;;;;;5035720;28;20188;-45
2023/03/18 01:46:59;;;;;;;2.77;1.80;;;12.60;99.90;;;;;;5036100;28;20233;-47
2023/03/18 01:49:32;;;;;;;1.77;1.60;;;12.70;99.90;;;;;;5037082;28;20182;-45
2023/03/18 01:52:04;;;;;;;2.90;1.90;;;12.70;99.90;;;;;;5035629;28;20476;-48
2023/03/18 01:54:33;;;;;;;3.03;1.70;;;12.70;99.90;;;;;;5035542;28;20429;-44
2023/03/18 01:57:00;;;;;;;4.20;1.97;;;12.60;99.90;;;;;;5045369;28;20446;-45
2023/03/18 01:59:27;;;;;;;3.37;1.83;;;12.60;99.90;;;;;;5056242;28;20424;-46
2023/03/18 02:02:01;;;;;;;2.30;1.90;;;12.60;99.90;;;;;;5040249;28;20418;-45
2023/03/18 02:04:31;;;;;;;2.40;2.10;;;12.60;99.90;;;;;;5036628;28;20444;-47
2023/03/18 02:06:58;;;;;;;2.10;1.50;;;12.60;99.90;;;;;;5036212;28;20405;-45
2023/03/18 02:09:24;;;;;;;2.97;2.00;;;12.60;99.90;;;;;;5036465;28;20425;-47
2023/03/18 02:11:50;;;;;;;3.57;1.80;;;12.60;99.90;;;;;;5037210;28;20432;-45
2023/03/18 02:14:19;;;;;;;5.40;2.10;;;12.60;99.90;;;;;;5037192;28;20295;-46
2023/03/18 02:17:10;;;;;;;4.07;1.53;;;12.60;99.90;;;;;;5036411;28;20508;-46
2023/03/18 02:19:38;;;;;;;2.77;1.57;;;12.60;99.90;;;;;;5026935;28;20441;-46
2023/03/18 02:22:12;;;;;;;2.47;1.70;;;12.60;99.90;;;;;;5035593;28;20460;-45
2023/03/18 02:25:08;;;;;;;2.70;1.53;;;12.60;99.90;;;;;;5037306;28;20409;-46
2023/03/18 02:27:37;;;;;;;2.00;1.60;;;12.50;99.90;;;;;;5006388;28;20460;-45
2023/03/18 02:30:10;;;;;;;4.40;2.03;;;12.50;99.90;;;;;;5036389;28;20770;-45
2023/03/18 02:32:36;;;;;;;3.00;1.93;;;12.50;99.90;;;;;;5035952;28;20521;-45
2023/03/18 02:35:05;;;;;;;2.43;1.53;;;12.40;99.90;;;;;;5034983;28;20755;-46
2023/03/18 02:37:31;;;;;;;4.10;2.33;;;12.40;99.90;;;;;;5036545;28;20452;-46
2023/03/18 02:40:12;;;;;;;2.43;1.67;;;12.40;99.90;;;;;;5036602;28;20492;-46
2023/03/18 02:42:38;;;;;;;2.97;1.63;;;12.40;99.90;;;;;;5035720;28;20740;-45
2023/03/18 02:45:09;;;;;;;2.23;1.60;;;12.40;99.90;;;;;;5035664;28;20424;-45
2023/03/18 02:47:35;;;;;;;2.60;1.50;;;12.40;99.90;;;;;;5034731;28;20193;-44
2023/03/18 02:50:02;;;;;;;2.53;1.60;;;12.30;99.90;;;;;;5033446;28;20504;-47
2023/03/18 02:52:28;;;;;;;1.93;1.50;;;12.30;99.90;;;;;;5035384;28;20839;-45
2023/03/18 02:58:15;;;;;;;3.10;1.67;;;12.30;99.90;;;;;;5034058;28;20193;-46
2023/03/18 03:00:41;;;;;;;2.70;2.07;;;12.30;99.90;;;;;;5035907;28;20512;-45
2023/03/18 03:03:07;;;;;;;3.00;1.40;;;12.30;99.90;;;;;;5035301;28;20448;-47
2023/03/18 03:05:34;;;;;;;2.80;1.77;;;12.20;99.90;;;;;;5035438;28;20408;-47
2023/03/18 03:07:59;;;;;;;2.50;1.70;;;12.20;99.90;;;;;;5035751;28;20273;-45
2023/03/18 03:10:25;;;;;;;3.03;1.63;;;12.20;99.90;;;;;;5034304;28;20449;-44
2023/03/18 03:12:51;;;;;;;1.80;1.50;;;12.20;99.90;;;;;;5035965;28;20221;-48
2023/03/18 03:15:18;;;;;;;2.20;1.50;;;12.20;99.90;;;;;;5035696;28;20225;-45
2023/03/18 03:17:44;;;;;;;2.47;1.87;;;12.10;99.90;;;;;;5036365;28;20545;-45
2023/03/18 03:20:10;;;;;;;1.73;1.50;;;12.10;99.90;;;;;;5036137;28;20417;-45
2023/03/18 03:22:36;;;;;;;2.70;1.80;;;12.10;99.90;;;;;;5035168;28;20440;-45
2023/03/18 03:25:02;;;;;;;1.80;1.40;;;12.10;99.90;;;;;;5035314;28;20540;-45
2023/03/18 03:27:28;;;;;;;2.37;1.73;;;12.10;99.90;;;;;;5035642;28;20535;-46
2023/03/18 03:29:54;;;;;;;3.47;1.63;;;12.00;99.90;;;;;;5035506;28;20417;-44
2023/03/18 03:32:21;;;;;;;4.27;1.70;;;12.00;99.90;;;;;;5035362;28;20585;-46
2023/03/18 03:34:48;;;;;;;4.20;1.87;;;12.00;99.90;;;;;;5036105;28;20427;-45
2023/03/18 03:37:13;;;;;;;3.00;1.90;;;12.00;99.90;;;;;;5035691;28;20413;-45
2023/03/18 03:39:39;;;;;;;3.40;1.90;;;11.90;99.90;;;;;;5035596;28;20420;-48
2023/03/18 03:42:05;;;;;;;3.73;1.90;;;11.90;99.90;;;;;;5035472;28;20556;-46
2023/03/18 03:44:31;;;;;;;2.60;1.57;;;11.90;99.90;;;;;;5036079;28;20490;-45
2023/03/18 03:46:57;;;;;;;4.10;1.80;;;11.80;99.90;;;;;;5035508;28;20421;-44
2023/03/18 03:49:22;;;;;;;2.23;1.70;;;11.80;99.90;;;;;;5035181;28;20209;-45
2023/03/18 03:51:48;;;;;;;1.90;1.27;;;11.80;99.90;;;;;;5034420;28;20245;-46
2023/03/18 03:54:14;;;;;;;2.53;1.40;;;11.80;99.90;;;;;;5034954;28;20182;-44
2023/03/18 03:56:41;;;;;;;1.90;1.30;;;11.80;99.90;;;;;;5050938;28;20448;-47
2023/03/18 03:59:07;;;;;;;5.90;1.50;;;11.70;99.90;;;;;;5040304;28;20269;-44
2023/03/18 04:01:33;;;;;;;4.13;1.60;;;11.70;99.90;;;;;;5043067;28;20432;-45
2023/03/18 04:04:01;;;;;;;3.03;1.63;;;11.70;99.90;;;;;;5037639;28;20667;-45
2023/03/18 04:06:27;;;;;;;2.97;1.57;;;11.60;99.90;;;;;;5042292;28;20515;-45
2023/03/18 04:08:53;;;;;;;2.23;1.70;;;11.60;99.90;;;;;;5054504;28;20435;-48
2023/03/18 04:11:19;;;;;;;2.03;1.53;;;11.60;99.90;;;;;;5045448;28;20432;-46
2023/03/18 04:13:45;;;;;;;2.40;1.43;;;11.60;99.90;;;;;;5053409;28;20213;-48
2023/03/18 04:16:11;;;;;;;2.53;1.50;;;11.50;99.90;;;;;;5038922;28;20170;-46
2023/03/18 04:18:37;;;;;;;2.13;1.63;;;11.50;99.90;;;;;;5037502;28;20436;-47
2023/03/18 04:21:03;;;;;;;2.40;1.60;;;11.50;99.90;;;;;;5038959;28;20474;-45
2023/03/18 04:23:29;;;;;;;2.07;1.50;;;11.40;99.90;;;;;;5044593;28;20545;-46
2023/03/18 04:25:54;;;;;;;2.00;1.60;;;11.40;99.90;;;;;;5037533;28;20174;-46
2023/03/18 04:28:20;;;;;;;4.33;1.70;;;11.40;99.90;;;;;;5037353;28;20300;-44
2023/03/18 04:30:47;;;;;;;2.00;1.60;;;11.30;99.90;;;;;;5044203;28;20252;-47
2023/03/18 04:33:13;;;;;;;3.50;1.67;;;11.30;99.90;;;;;;5046630;28;20580;-46
2023/03/18 04:35:41;;;;;;;2.73;1.90;;;11.30;99.90;;;;;;5043624;28;20424;-44
2023/03/18 04:38:07;;;;;;;2.10;1.47;;;11.30;99.90;;;;;;5046907;28;20178;-45
2023/03/18 04:40:32;;;;;;;2.53;1.57;;;11.30;99.90;;;;;;5047332;28;20432;-47
2023/03/18 04:42:58;;;;;;;2.50;2.00;;;11.20;99.90;;;;;;5058776;28;20200;-45
2023/03/18 04:45:24;;;;;;;4.00;1.73;;;11.20;99.90;;;;;;5038054;28;20212;-45
2023/03/18 04:47:50;;;;;;;3.20;1.70;;;11.20;99.90;;;;;;5038655;28;20202;-45
2023/03/18 04:50:16;;;;;;;3.60;1.70;;;11.10;99.90;;;;;;5053563;28;20459;-45
2023/03/18 04:52:43;;;;;;;2.97;1.60;;;11.10;99.90;;;;;;5043448;28;20464;-45
2023/03/18 04:55:10;;;;;;;2.17;1.83;;;11.00;99.90;;;;;;5042152;28;20463;-44
2023/03/18 04:57:37;;;;;;;3.10;2.17;;;11.00;99.90;;;;;;5040268;28;20539;-44
2023/03/18 05:00:05;;;;;;;2.00;1.70;;;10.90;99.90;;;;;;5052774;28;20738;-44
2023/03/18 05:02:31;;;;;;;3.63;1.80;;;10.90;99.90;;;;;;5039893;28;20451;-44
2023/03/18 05:04:57;;;;;;;2.73;1.90;;;10.90;99.90;;;;;;5040873;28;20456;-47
2023/03/18 05:07:22;;;;;;;2.17;1.50;;;10.90;99.90;;;;;;5057533;28;20178;-46
2023/03/18 05:09:48;;;;;;;2.60;1.97;;;10.90;99.90;;;;;;5045493;28;20208;-45
2023/03/18 05:12:15;;;;;;;4.40;1.87;;;10.80;99.90;;;;;;5037951;28;20766;-46
2023/03/18 05:14:44;;;;;;;2.50;1.57;;;10.80;99.90;;;;;;5045748;28;20185;-47
2023/03/18 05:17:14;;;;;;;4.20;2.20;;;10.80;99.90;;;;;;5039056;28;20425;-45
2023/03/18 05:19:45;;;;;;;3.60;2.03;;;10.80;99.90;;;;;;5053214;28;20436;-47
2023/03/18 05:22:12;;;;;;;2.47;1.40;;;10.70;99.90;;;;;;5051331;28;20468;-44
2023/03/18 05:24:39;;;;;;;3.07;1.90;;;10.70;99.90;;;;;;5037930;28;20437;-46
2023/03/18 05:27:04;;;;;;;2.60;1.70;;;10.70;99.90;;;;;;5044653;28;20523;-45
2023/03/18 05:29:31;;;;;;;3.00;1.97;;;10.60;99.90;;;;;;5045248;28;20527;-45
2023/03/18 05:31:56;;;;;;;2.13;1.80;;;10.60;99.90;;;;;;5046767;28;20476;-44
2023/03/18 05:34:22;;;;;;;4.03;1.73;;;10.60;99.90;;;;;;5056388;28;20447;-48
2023/03/18 05:36:48;;;;;;;3.20;1.83;;;10.50;99.90;;;;;;5039511;28;20423;-46
2023/03/18 05:39:14;;;;;;;3.07;1.50;;;10.50;99.90;;;;;;5052043;28;20259;-47
2023/03/18 05:41:40;;;;;;;2.70;2.00;;;10.50;99.90;;;;;;5044431;28;20193;-43
2023/03/18 05:44:06;;;;;;;2.57;2.03;;;10.50;99.90;;;;;;5044992;28;20445;-48
2023/03/18 05:46:32;;;;;;;2.87;1.83;;;10.50;99.90;;;;;;5038841;28;20209;-44
2023/03/18 05:48:58;;;;;;;2.53;1.97;;;10.50;99.90;;;;;;5045224;28;20525;-45
2023/03/18 05:51:25;;;;;;;3.07;2.03;;;10.50;99.90;;;;;;5053646;28;20428;-46
2023/03/18 05:53:51;;;;;;;2.20;1.60;;;10.50;99.90;;;;;;5049596;28;20283;-45
2023/03/18 05:56:17;;;;;;;3.93;2.10;;;10.50;99.90;;;;;;5038662;28;20441;-47
2023/03/18 05:58:42;;;;;;;2.97;2.03;;;10.50;99.90;;;;;;5041342;28;20842;-47
2023/03/18 06:01:10;;;;;;;3.70;2.10;;;10.50;99.90;;;;;;5047047;28;20179;-46
2023/03/18 06:03:36;;;;;;;2.63;2.10;;;10.50;99.90;;;;;;5052976;28;20255;-47
2023/03/18 06:06:02;;;;;;;1.97;1.50;;;10.60;99.90;;;;;;5042126;28;20432;-45
2023/03/18 06:08:28;;;;;;;2.40;1.90;;;10.60;99.90;;;;;;5034971;28;20445;-44
2023/03/18 06:10:54;;;;;;;3.00;1.83;;;10.60;99.90;;;;;;5036024;28;20438;-45
2023/03/18 06:13:20;;;;;;;2.67;1.90;;;10.60;99.90;;;;;;5036104;28;20264;-45
2023/03/18 06:15:46;;;;;;;3.87;1.90;;;10.60;99.90;;;;;;5043986;28;20429;-46
2023/03/18 06:18:12;;;;;;;3.67;2.03;;;10.60;99.90;;;;;;5037423;28;20440;-44
2023/03/18 06:20:38;;;;;;;3.50;2.10;;;10.70;99.90;;;;;;5035071;28;20429;-46
2023/03/18 06:23:04;;;;;;;4.47;2.20;;;10.70;99.90;;;;;;5040259;28;20435;-46
2023/03/18 06:25:30;;;;;;;4.63;2.80;;;10.80;99.90;;;;;;5038669;28;20185;-46
2023/03/18 06:27:56;;;;;;;3.70;2.70;;;10.80;99.90;;;;;;5039137;28;20409;-44
2023/03/18 06:30:22;;;;;;;3.33;2.40;;;10.90;99.90;;;;;;5034897;28;20735;-47
2023/03/18 06:32:48;;;;;;;4.90;2.63;;;10.90;99.90;;;;;;5034868;28;20230;-46
2023/03/18 06:35:14;;;;;;;3.57;2.80;;;11.10;99.90;;;;;;5034906;28;20433;-47
2023/03/18 06:37:40;;;;;;;4.23;2.60;;;11.20;99.90;;;;;;5036282;28;20190;-46
2023/03/18 06:40:07;;;;;;;4.30;2.83;;;11.30;99.90;;;;;;5036473;28;20764;-46
2023/03/18 06:42:33;;;;;;;3.00;2.57;;;11.40;99.90;;;;;;5036764;28;20177;-46
2023/03/18 06:44:59;;;;;;;5.07;2.20;;;11.50;99.90;;;;;;5036432;28;20437;-47
2023/03/18 06:47:25;;;;;;;3.33;2.40;;;11.60;99.90;;;;;;5036832;28;20432;-46
2023/03/18 06:49:50;;;;;;;3.87;2.80;;;11.70;99.90;;;;;;5037889;28;20469;-46
2023/03/18 06:52:17;;;;;;;2.60;1.90;;;11.80;99.90;;;;;;5041571;28;20486;-46
2023/03/18 06:54:44;;;;;;;5.60;2.53;;;11.90;99.90;;;;;;5052137;28;20322;-45
2023/03/18 06:57:10;;;;;;;2.83;2.57;;;12.00;99.90;;;;;;5043489;28;20445;-45
2023/03/18 06:59:37;;;;;;;3.50;2.50;;;12.20;99.90;;;;;;5036882;28;20437;-46
2023/03/18 07:02:04;;;;;;;4.20;3.00;;;12.40;99.90;;;;;;5035986;28;20761;-46
2023/03/18 07:04:30;;;;;;;5.53;3.67;;;12.60;99.90;;;;;;5042316;28;20775;-46
2023/03/18 07:06:56;;;;;;;5.90;3.83;;;12.90;99.90;;;;;;5051330;28;20465;-47
2023/03/18 07:09:23;;;;;;;8.77;4.40;;;13.30;99.90;;;;;;5033938;28;20452;-47
2023/03/18 07:11:49;;;;;;;7.80;4.83;;;13.70;99.90;;;;;;5034427;28;20435;-47
2023/03/18 07:14:15;;;;;;;5.67;4.20;;;14.00;99.90;;;;;;5043605;28;20907;-47
2023/03/18 07:16:41;;;;;;;7.23;4.60;;;14.30;99.90;;;;;;5052324;28;20424;-46
2023/03/18 07:19:06;;;;;;;7.40;3.90;;;14.70;99.90;;;;;;5051631;28;20193;-46
2023/03/18 07:21:34;;;;;;;4.20;2.97;;;15.00;99.90;;;;;;5036473;28;20819;-50
2023/03/18 07:24:00;;;;;;;3.77;3.03;;;15.40;99.90;;;;;;5049502;28;20432;-45
2023/03/18 07:26:26;;;;;;;6.33;2.67;;;15.70;99.90;;;;;;5051885;28;20444;-46
2023/03/18 07:28:52;;;;;;;2.63;2.30;;;16.00;99.90;;;;;;5039478;28;20455;-47
2023/03/18 07:31:18;;;;;;;4.27;1.93;;;16.40;99.90;;;;;;5047165;28;20476;-46
2023/03/18 07:33:43;;;;;;;9.63;2.13;;;16.90;99.90;;;;;;5049889;28;20213;-46
2023/03/18 07:36:09;;;;;;;1.87;1.50;;;17.50;99.90;;;;;;5039040;28;20236;-46
2023/03/18 07:38:35;;;;;;;3.70;2.40;;;18.30;99.90;;;;;;5035772;28;20205;-47
2023/03/18 07:41:01;;;;;;;4.50;2.10;;;19.20;99.90;;;;;;5042208;28;20471;-48
2023/03/18 07:43:27;;;;;;;3.00;1.93;;;20.10;99.90;;;;;;5036286;28;20839;-46
2023/03/18 07:45:52;;;;;;;2.00;1.60;;;21.00;99.90;;;;;;5046688;28;20182;-45
2023/03/18 07:48:19;;;;;;;3.70;1.67;;;21.70;99.90;;;;;;5050067;28;20696;-48
2023/03/18 07:50:44;;;;;;;2.77;1.70;;;22.50;99.90;;;;;;5040076;28;20190;-48
2023/03/18 07:53:11;;;;;;;3.00;2.10;;;23.20;99.90;;;;;;5044126;28;20472;-48
2023/03/18 07:55:37;;;;;;;3.73;1.83;;;23.60;99.90;;;;;;5044733;28;20185;-46
2023/03/18 07:58:03;;;;;;;4.73;2.27;;;24.40;99.90;;;;;;5052203;28;20424;-46
2023/03/18 08:00:30;;;;;;;2.30;1.80;;;24.90;99.90;;;;;;5053694;28;20492;-46
2023/03/18 08:02:55;;;;;;;3.10;2.33;;;25.50;99.90;;;;;;5036792;28;20432;-45
2023/03/18 08:05:21;;;;;;;3.17;1.83;;;26.10;1.00;;;;;;5036362;28;20449;-49
2023/03/18 08:07:47;;;;;;;2.53;1.90;;;26.80;1.00;;;;;;5034959;28;20842;-47
2023/03/18 08:10:14;;;;;;;3.90;2.10;;;27.40;1.00;;;;;;5040837;28;20224;-50
2023/03/18 08:12:41;;;;;;;1.90;1.70;;;28.00;1.00;;;;;;5054833;28;20471;-46
2023/03/18 08:15:08;;;;;;;3.10;2.10;;;28.70;1.00;;;;;;5051094;28;20445;-45
2023/03/18 08:17:34;;;;;;;2.17;1.77;;;29.10;1.00;;;;;;5035209;28;20498;-47
2023/03/18 08:20:00;;;;;;;2.50;1.70;;;29.50;1.00;;;;;;5042289;28;20423;-47
2023/03/18 08:22:27;;;;;;;3.03;1.93;;;30.10;1.00;;;;;;5035742;28;20441;-49
2023/03/18 08:24:52;;;;;;;2.10;1.73;;;30.50;1.00;;;;;;5042766;28;20845;-48
2023/03/18 08:27:18;;;;;;;4.50;2.63;;;31.00;1.00;;;;;;5037217;28;20452;-48
2023/03/18 08:29:44;;;;;;;2.87;1.87;;;31.60;1.00;;;;;;5041934;28;20645;-46
2023/03/18 08:32:10;;;;;;;2.60;2.07;;;32.20;1.00;;;;;;5046701;28;20226;-45
2023/03/18 08:34:35;;;;;;;2.60;1.60;;;32.60;1.00;;;;;;5048770;28;20175;-49
2023/03/18 08:37:01;;;;;;;2.13;1.40;;;33.00;1.00;;;;;;5036107;28;20542;-45
2023/03/18 08:39:27;;;;;;;3.47;1.67;;;33.40;1.00;;;;;;5051684;28;20197;-47
2023/03/18 08:41:53;;;;;;;2.47;1.70;;;33.80;1.00;;;;;;5037233;28;20416;-47
2023/03/18 08:44:19;;;;;;;2.40;1.57;;;34.30;1.00;;;;;;5052646;28;20210;-45
2023/03/18 08:46:45;;;;;;;2.23;1.70;;;34.70;1.00;;;;;;5053778;28;20441;-48
2023/03/18 08:49:12;;;;;;;2.80;1.30;;;35.20;1.00;;;;;;5055794;28;20178;-45
2023/03/18 08:51:39;;;;;;;1.97;1.53;;;35.60;1.00;;;;;;5056148;28;20333;-47
2023/03/18 08:54:05;;;;;;;2.63;1.47;;;36.00;1.00;;;;;;5056207;28;20599;-46
2023/03/18 08:56:30;;;;;;;2.23;1.50;;;36.20;1.00;;;;;;5056488;28;20725;-45
2023/03/18 08:58:56;;;;;;;3.00;1.60;;;36.60;1.00;;;;;;5056721;28;20430;-51
2023/03/18 09:01:22;;;;;;;2.13;1.73;;;36.80;1.00;;;;;;5057519;28;20186;-49
2023/03/18 09:03:49;;;;;;;2.20;1.23;;;37.00;1.00;;;;;;5055462;28;20456;-50
2023/03/18 09:06:15;;;;;;;1.60;1.10;;;37.40;1.00;;;;;;5057808;28;20497;-53
2023/03/18 09:08:42;;;;;;;1.50;1.20;;;37.80;1.00;;;;;;5056587;28;20444;-49
2023/03/18 09:11:09;;;;;;;2.30;1.53;;;38.10;1.00;;;;;;5054054;28;20709;-50
2023/03/18 09:13:35;;;;;;;2.90;1.53;;;38.20;1.00;;;;;;5054685;28;20435;-47
2023/03/18 09:16:01;;;;;;;2.33;1.10;;;38.50;1.00;;;;;;5054854;28;20432;-49
2023/03/18 09:18:28;;;;;;;2.07;1.40;;;38.80;1.00;;;;;;5054184;28;20407;-52
2023/03/18 09:20:53;;;;;;;1.83;1.10;;;38.90;1.00;;;;;;5054908;28;20519;-50
2023/03/18 09:23:20;;;;;;;1.70;1.20;;;39.10;1.00;;;;;;5052805;28;20438;-48
2023/03/18 09:25:46;;;;;;;2.40;1.20;;;39.20;1.00;;;;;;5056267;28;20181;-50
2023/03/18 09:28:13;;;;;;;2.67;1.27;;;39.40;1.00;;;;;;5056137;28;20885;-47
2023/03/18 09:30:39;;;;;;;3.23;1.10;;;39.40;1.00;;;;;;5051762;28;20200;-51
2023/03/18 09:33:05;;;;;;;2.40;1.00;;;39.10;1.00;;;;;;5051574;28;20734;-45
2023/03/18 09:35:31;;;;;;;1.60;1.27;;;39.00;1.00;;;;;;5050397;28;20971;-47
2023/03/18 09:37:59;;;;;;;1.73;1.10;;;38.90;1.00;;;;;;5051243;28;20561;-49
2023/03/18 09:40:34;;;;;;;2.30;1.30;;;38.80;1.00;;;;;;5050378;28;20872;-47
2023/03/18 09:43:02;;;;;;;2.70;1.03;;;38.70;1.00;;;;;;5048811;28;20475;-49
2023/03/18 09:45:56;;;;;;;2.27;1.20;;;38.50;1.00;;;;;;5050923;28;20828;-49
2023/03/18 09:48:47;;;;;;;2.83;1.53;;;38.20;1.00;;;;;;5051197;28;20407;-47
2023/03/18 09:51:22;;;;;;;4.60;1.50;;;37.90;1.00;;;;;;5032453;28;20439;-49
2023/03/18 09:53:52;;;;;;;1.93;1.20;;;37.60;1.00;;;;;;5049892;28;20472;-49
2023/03/18 09:56:24;;;;;;;3.73;1.60;;;37.30;1.00;;;;;;5049294;28;20904;-51
2023/03/18 09:59:11;;;;;;;5.13;1.80;;;37.10;1.00;;;;;;5049819;28;20428;-48
2023/03/18 10:01:37;;;;;;;3.07;1.50;;;36.90;1.00;;;;;;5054619;28;20454;-48
2023/03/18 10:04:22;;;;;;;3.10;1.60;;;36.80;1.00;;;;;;5051296;28;20519;-50
2023/03/18 10:07:01;;;;;;;2.80;1.47;;;36.90;1.00;;;;;;5050177;28;20599;-51
2023/03/18 10:09:27;;;;;;;2.80;1.30;;;37.00;1.00;;;;;;5051409;28;20411;-48
2023/03/18 10:12:06;;;;;;;2.30;1.10;;;37.10;1.00;;;;;;5054024;28;20415;-51
2023/03/18 10:15:05;;;;;;;3.93;1.33;;;37.40;1.00;;;;;;5051848;28;20435;-48
2023/03/18 10:17:37;;;;;;;2.60;1.63;;;37.70;1.00;;;;;;5052418;28;20721;-51
2023/03/18 10:20:16;;;;;;;2.23;1.40;;;37.80;1.00;;;;;;5051848;28;20823;-48
2023/03/18 10:23:00;;;;;;;2.40;1.63;;;38.20;1.00;;;;;;5052149;28;20882;-51
2023/03/18 10:25:37;;;;;;;3.70;1.37;;;38.40;1.00;;;;;;5052800;28;20412;-50
2023/03/18 10:28:34;;;;;;;2.30;1.30;;;38.70;1.00;;;;;;5111442;27;20561;-51
2023/03/18 10:31:09;;;;;;;2.20;1.40;;;39.10;1.00;;;;;;5111209;28;20610;-50
2023/03/18 10:33:47;;;;;;;1.53;1.37;;;39.40;1.00;;;;;;5109428;28;20647;-49
2023/03/18 10:36:22;;;;;;;2.20;1.23;;;39.60;1.00;;;;;;5108432;28;20492;-49
2023/03/18 10:38:50;;;;;;;1.73;1.40;;;40.00;1.00;;;;;;5107631;28;20489;-47
2023/03/18 10:41:34;;;;;;;1.70;1.40;;;40.30;1.00;;;;;;5107982;28;20413;-52
2023/03/18 10:44:21;;;;;;;2.10;1.33;;;40.70;1.00;;;;;;5107226;28;20438;-47
2023/03/18 10:46:47;;;;;;;4.43;1.60;;;41.50;1.00;;;;;;5109007;28;20541;-48
2023/03/18 10:49:19;;;;;;;2.10;1.40;;;42.10;1.00;;;;;;5107834;28;20651;-48
2023/03/18 10:51:59;;;;;;;2.70;1.40;;;42.60;1.00;;;;;;5106631;28;20516;-47
2023/03/18 10:54:42;;;;;;;2.53;1.50;;;43.00;1.00;;;;;;5091827;28;21053;-49
2023/03/18 10:57:13;;;;;;;2.43;1.30;;;43.30;1.00;;;;;;5110333;28;20510;-48
2023/03/18 10:59:43;;;;;;;3.40;1.40;;;43.60;1.00;;;;;;5108453;28;20413;-46
2023/03/18 11:02:19;;;;;;;2.23;1.53;;;43.90;1.00;;;;;;5108026;28;20418;-51
2023/03/18 11:05:15;;;;;;;1.70;1.50;;;44.40;1.00;;;;;;5108105;28;20768;-47
2023/03/18 11:08:05;;;;;;;2.10;1.50;;;44.80;1.00;;;;;;5072505;28;20503;-51
2023/03/18 11:10:43;;;;;;;1.63;1.17;;;45.30;1.00;;;;;;5109218;28;20460;-48
2023/03/18 11:13:17;;;;;;;3.47;1.77;;;45.20;1.00;;;;;;5110815;28;20424;-51
2023/03/18 11:15:51;;;;;;;2.30;1.73;;;45.40;1.00;;;;;;5106572;28;20553;-50
2023/03/18 11:18:21;;;;;;;2.23;1.40;;;45.50;1.00;;;;;;5106275;28;20429;-51
2023/03/18 11:20:58;;;;;;;2.43;1.30;;;45.50;1.00;;;;;;5108779;28;20835;-50
2023/03/18 11:23:47;;;;;;;1.50;1.20;;;45.50;1.00;;;;;;5105538;28;20819;-50
2023/03/18 11:26:27;;;;;;;1.93;1.30;;;45.70;1.00;;;;;;5106494;28;20477;-50
2023/03/18 11:28:58;;;;;;;2.03;1.40;;;45.80;1.00;;;;;;5104705;28;20440;-49
2023/03/18 11:31:24;;;;;;;2.33;1.40;;;46.20;1.00;;;;;;5106574;28;20425;-47
2023/03/18 11:33:49;;;;;;;2.43;1.47;;;46.50;1.00;;;;;;5106970;28;20701;-49
2023/03/18 11:36:19;;;;;;;2.40;1.53;;;46.50;1.00;;;;;;5105500;28;20419;-48
2023/03/18 11:38:58;;;;;;;3.70;1.60;;;46.50;1.00;;;;;;5095682;28;20183;-47
2023/03/18 11:41:34;;;;;;;1.80;1.50;;;46.50;1.00;;;;;;5091065;28;20449;-49
2023/03/18 11:44:02;;;;;;;2.53;1.83;;;46.10;1.00;;;;;;5091861;28;20410;-48
2023/03/18 11:46:46;;;;;;;1.90;1.70;;;46.20;1.00;;;;;;5091827;28;20884;-50
2023/03/18 11:49:23;;;;;;;2.27;1.80;;;46.20;1.00;;;;;;5093511;28;20653;-49
2023/03/18 11:52:19;;;;;;;2.53;1.90;;;46.40;1.00;;;;;;5092629;28;21093;-51
2023/03/18 11:54:52;;;;;;;2.67;1.60;;;46.60;1.00;;;;;;5094057;28;20494;-48
2023/03/18 11:57:35;;;;;;;1.70;1.33;;;46.70;1.00;;;;;;5093034;28;20824;-47
2023/03/18 12:00:16;;;;;;;4.00;1.90;;;47.00;1.00;;;;;;5094283;28;20755;-49
2023/03/18 12:03:02;;;;;;;1.50;1.30;;;46.80;1.00;;;;;;5092830;28;20812;-49
2023/03/18 12:05:59;;;;;;;2.00;1.60;;;46.40;1.00;;;;;;5094935;28;20673;-49
2023/03/18 12:08:43;;;;;;;2.50;1.70;;;46.30;1.00;;;;;;5095922;28;20433;-48
2023/03/18 12:11:41;;;;;;;2.30;1.90;;;46.70;1.00;;;;;;5095999;28;20463;-50
2023/03/18 12:14:37;;;;;;;3.00;1.93;;;46.50;1.00;;;;;;5092287;28;20446;-50
2023/03/18 12:17:40;;;;;;;2.00;1.50;;;46.50;1.00;;;;;;5075567;28;20426;-52
2023/03/18 12:20:27;;;;;;;2.33;1.63;;;46.70;1.00;;;;;;5092652;28;20406;-50
2023/03/18 12:23:03;;;;;;;2.60;1.43;;;46.60;1.00;;;;;;5090285;28;20646;-51
2023/03/18 12:25:37;;;;;;;3.10;2.23;;;46.70;1.00;;;;;;5087320;28;20573;-48
2023/03/18 12:28:40;;;;;;;5.33;1.70;;;46.60;1.00;;;;;;5091944;28;20569;-50
2023/03/18 12:31:28;;;;;;;2.30;1.40;;;46.50;1.00;;;;;;5092978;28;20889;-50
2023/03/18 12:34:00;;;;;;;1.87;1.30;;;46.80;1.00;;;;;;5091692;28;20407;-49
2023/03/18 12:36:48;;;;;;;1.80;1.20;;;47.20;1.00;;;;;;5095248;28;20441;-51
2023/03/18 12:39:33;;;;;;;3.03;1.40;;;47.50;1.00;;;;;;5094824;28;20406;-52
2023/03/18 12:42:20;;;;;;;1.80;1.60;;;47.50;1.00;;;;;;5091656;28;20542;-50
2023/03/18 12:44:58;;;;;;;2.30;1.53;;;47.60;1.00;;;;;;5092304;28;20543;-50
2023/03/18 12:47:44;;;;;;;2.70;1.93;;;47.30;1.00;;;;;;5094400;28;20465;-50
2023/03/18 12:50:25;;;;;;;2.30;1.80;;;47.40;1.00;;;;;;5093911;28;20410;-54
2023/03/18 12:53:02;;;;;;;2.50;2.03;;;47.20;1.00;;;;;;5092207;28;20564;-52
2023/03/18 12:55:30;;;;;;;2.00;1.80;;;47.40;1.00;;;;;;5091395;28;20776;-49
2023/03/18 12:58:10;;;;;;;1.67;1.50;;;47.60;1.00;;;;;;5091428;28;20498;-48
2023/03/18 13:01:06;;;;;;;2.50;1.40;;;47.70;1.00;;;;;;5089835;28;20425;-50
2023/03/18 13:03:43;;;;;;;1.47;1.37;;;47.60;1.00;;;;;;5089806;28;20657;-48
2023/03/18 13:06:16;;;;;;;1.60;1.50;;;47.50;1.00;;;;;;5091305;28;20528;-50
2023/03/18 13:08:51;;;;;;;1.70;1.57;;;47.60;1.00;;;;;;5093465;28;20402;-52